| time (UTC) | temp C | wind direction | speed KPH | gust KPH | rain 1hr cm | rain 24hr cm | rain mn cm | humidity % | barometer mb |
| 20260507100011 | 12 | 297 | 1.6 | 4.8 | 0.00 | 0.00 | 0.00 | 76 | 1015.7 |
| 20260507094537 | 12 | 309 | 3.2 | 6.4 | 0.00 | 0.00 | 0.00 | 76 | 1015.7 |
| 20260507093015 | 12 | 293 | 4.8 | 6.4 | 0.00 | 0.00 | 0.00 | 78 | 1015.6 |
| 20260507091540 | 12 | 303 | 3.2 | 8.0 | 0.00 | 0.00 | 0.00 | 77 | 1015.5 |
| 20260507090002 | 12 | 15 | 1.6 | 6.4 | 0.00 | 0.00 | 0.00 | 78 | 1015.5 |
| 20260507084524 | 11 | 26 | 3.2 | 6.4 | 0.00 | 0.03 | 0.00 | 78 | 1015.4 |
| 20260507083058 | 11 | 5 | 0.0 | 6.4 | 0.00 | 0.03 | 0.00 | 77 | 1015.5 |
| 20260507081520 | 11 | 360 | 4.8 | 9.7 | 0.00 | 0.03 | 0.00 | 79 | 1015.3 |
| 20260507080036 | 11 | 311 | 1.6 | 6.4 | 0.00 | 0.03 | 0.00 | 80 | 1015.3 |
| 20260507074606 | 11 | 318 | 3.2 | 8.0 | 0.00 | 0.05 | 0.00 | 83 | 1015.3 |
| 20260507073016 | 10 | 24 | 0.0 | 6.4 | 0.00 | 0.05 | 0.00 | 84 | 1015.1 |
| 20260507071558 | 10 | 12 | 0.0 | 6.4 | 0.00 | 0.05 | 0.00 | 86 | 1015.0 |
| 20260507070033 | 9 | 328 | 1.6 | 4.8 | 0.00 | 0.05 | 0.00 | 89 | 1015.0 |
| 20260507064550 | 8 | 325 | 1.6 | 4.8 | 0.00 | 0.15 | 0.00 | 91 | 1015.0 |
| 20260507063022 | 8 | 232 | 0.0 | 1.6 | 0.00 | 0.15 | 0.00 | 92 | 1014.9 |
| 20260507061558 | 8 | 283 | 0.0 | 0.0 | 0.00 | 0.15 | 0.00 | 92 | 1014.8 |
| 20260507060030 | 8 | 283 | 0.0 | 0.0 | 0.00 | 0.15 | 0.00 | 92 | 1014.7 |
| 20260507054602 | 7 | 283 | 0.0 | 4.8 | 0.00 | 0.23 | 0.00 | 92 | 1014.6 |
| 20260507053044 | 7 | 286 | 0.0 | 3.2 | 0.00 | 0.23 | 0.00 | 91 | 1014.4 |
| 20260507051519 | 7 | 286 | 1.6 | 4.8 | 0.00 | 0.23 | 0.00 | 92 | 1014.3 |
| 20260507050007 | 7 | 288 | 0.0 | 3.2 | 0.00 | 0.23 | 0.00 | 91 | 1014.1 |
| 20260507044535 | 7 | 288 | 0.0 | 1.6 | 0.00 | 0.38 | 0.00 | 91 | 1013.9 |
| 20260507043055 | 7 | 288 | 3.2 | 6.4 | 0.00 | 0.38 | 0.00 | 91 | 1013.7 |
| 20260507041531 | 7 | 290 | 3.2 | 4.8 | 0.00 | 0.38 | 0.00 | 91 | 1013.6 |
| 20260507040013 | 7 | 292 | 1.6 | 3.2 | 0.00 | 0.38 | 0.00 | 91 | 1013.5 |
| 20260507034534 | 7 | 292 | 3.2 | 4.8 | 0.00 | 0.46 | 0.00 | 91 | 1013.5 |
| 20260507033100 | 7 | 297 | 3.2 | 4.8 | 0.00 | 0.46 | 0.00 | 91 | 1013.3 |
| 20260507031505 | 7 | 355 | 0.0 | 4.8 | 0.00 | 0.46 | 0.00 | 91 | 1013.2 |
| 20260507030037 | 7 | 355 | 0.0 | 3.2 | 0.00 | 0.46 | 0.00 | 91 | 1013.2 |
| 20260507024503 | 7 | 355 | 0.0 | 3.2 | 0.00 | 0.51 | 0.00 | 91 | 1013.1 |
| 20260507023027 | 7 | 5 | 1.6 | 6.4 | 0.00 | 0.51 | 0.00 | 91 | 1013.1 |
| 20260507021549 | 7 | 360 | 3.2 | 9.7 | 0.00 | 0.51 | 0.00 | 91 | 1013.0 |
| 20260507020009 | 7 | 360 | 1.6 | 8.0 | 0.00 | 0.51 | 0.00 | 91 | 1012.9 |
| 20260507014542 | 7 | 297 | 3.2 | 6.4 | 0.00 | 0.56 | 0.00 | 91 | 1012.8 |
| 20260507013057 | 7 | 298 | 3.2 | 6.4 | 0.00 | 0.56 | 0.00 | 91 | 1012.8 |
| 20260507011518 | 7 | 290 | 3.2 | 6.4 | 0.00 | 0.56 | 0.00 | 91 | 1012.7 |
| 20260507010037 | 7 | 289 | 3.2 | 6.4 | 0.00 | 0.56 | 0.00 | 91 | 1012.7 |
| 20260507004517 | 7 | 290 | 4.8 | 6.4 | 0.00 | 0.66 | 0.00 | 91 | 1012.7 |
| 20260507003037 | 7 | 286 | 4.8 | 6.4 | 0.00 | 0.66 | 0.00 | 91 | 1012.6 |
| 20260507001558 | 7 | 288 | 3.2 | 6.4 | 0.00 | 0.66 | 0.00 | 91 | 1012.6 |
| 20260507000026 | 7 | 286 | 3.2 | 8.0 | 0.00 | 0.66 | 0.00 | 91 | 1012.5 |
| 20260506234539 | 7 | 277 | 3.2 | 8.0 | 0.00 | 0.71 | 0.00 | 91 | 1012.5 |
| 20260506233006 | 7 | 262 | 4.8 | 9.7 | 0.00 | 0.71 | 0.00 | 90 | 1012.4 |
| 20260506231543 | 7 | 281 | 3.2 | 6.4 | 0.00 | 0.71 | 0.00 | 90 | 1012.3 |
| 20260506224535 | 7 | 292 | 1.6 | 3.2 | 0.00 | 0.79 | 0.00 | 90 | 1012.1 |
| 20260506223009 | 7 | 292 | 1.6 | 4.8 | 0.00 | 0.79 | 0.00 | 90 | 1012.0 |
| 20260506221536 | 7 | 292 | 1.6 | 4.8 | 0.00 | 0.79 | 0.00 | 89 | 1011.9 |
| 20260506220014 | 7 | 294 | 4.8 | 6.4 | 0.00 | 0.79 | 0.00 | 89 | 1011.7 |
| 20260506214503 | 7 | 290 | 3.2 | 6.4 | 0.00 | 0.84 | 0.79 | 88 | 1011.6 |
| 20260506213049 | 7 | 297 | 3.2 | 6.4 | 0.00 | 0.84 | 0.79 | 88 | 1011.5 |
| 20260506211514 | 7 | 326 | 1.6 | 6.4 | 0.00 | 0.84 | 0.79 | 88 | 1011.3 |
| 20260506210033 | 8 | 309 | 3.2 | 4.8 | 0.00 | 0.84 | 0.79 | 87 | 1011.2 |
| 20260506204508 | 8 | 313 | 1.6 | 4.8 | 0.00 | 0.99 | 0.79 | 87 | 1011.0 |
| 20260506203055 | 8 | 323 | 1.6 | 4.8 | 0.00 | 0.99 | 0.79 | 87 | 1010.8 |
| 20260506201535 | 9 | 345 | 3.2 | 6.4 | 0.00 | 0.99 | 0.79 | 87 | 1010.7 |
| 20260506200058 | 10 | 337 | 4.8 | 9.7 | 0.00 | 0.99 | 0.79 | 87 | 1010.6 |
| 20260506194531 | 10 | 304 | 3.2 | 8.0 | 0.00 | 1.17 | 0.79 | 87 | 1010.4 |
| 20260506193102 | 10 | 360 | 3.2 | 8.0 | 0.00 | 1.17 | 0.79 | 88 | 1010.2 |
| 20260506191530 | 10 | 292 | 3.2 | 6.4 | 0.00 | 1.17 | 0.79 | 87 | 1010.2 |
| 20260506190100 | 10 | 55 | 1.6 | 3.2 | 0.00 | 1.17 | 0.79 | 87 | 1010.1 |
| 20260506184525 | 10 | 55 | 0.0 | 0.0 | 0.00 | 1.32 | 0.79 | 87 | 1010.1 |
| 20260506183106 | 10 | 55 | 0.0 | 0.0 | 0.00 | 1.32 | 0.79 | 86 | 1010.0 |
| 20260506181527 | 11 | 55 | 0.0 | 0.0 | 0.00 | 1.32 | 0.79 | 86 | 1009.7 |
| 20260506180055 | 11 | 55 | 0.0 | 1.6 | 0.00 | 1.32 | 0.79 | 86 | 1009.6 |
| 20260506174517 | 11 | 55 | 0.0 | 4.8 | 0.00 | 1.37 | 0.79 | 86 | 1009.5 |
| 20260506173050 | 11 | 72 | 1.6 | 8.0 | 0.00 | 1.37 | 0.79 | 86 | 1009.2 |
| 20260506171518 | 11 | 321 | 3.2 | 4.8 | 0.00 | 1.37 | 0.79 | 85 | 1009.0 |
| 20260506164507 | 11 | 287 | 1.6 | 6.4 | 0.00 | 1.40 | 0.79 | 84 | 1008.8 |
| 20260506163031 | 11 | 286 | 3.2 | 8.0 | 0.00 | 1.40 | 0.79 | 83 | 1008.9 |
| 20260506161555 | 11 | 288 | 3.2 | 12.9 | 0.00 | 1.40 | 0.79 | 82 | 1008.9 |
| 20260506160019 | 12 | 292 | 6.4 | 14.5 | 0.00 | 1.40 | 0.79 | 81 | 1008.9 |
| 20260506154549 | 12 | 271 | 4.8 | 12.9 | 0.00 | 1.40 | 0.79 | 82 | 1008.8 |
| 20260506153012 | 12 | 251 | 4.8 | 9.7 | 0.00 | 1.40 | 0.79 | 83 | 1008.7 |
| 20260506151542 | 12 | 288 | 6.4 | 9.7 | 0.00 | 1.40 | 0.79 | 83 | 1008.8 |
| 20260506150005 | 11 | 5 | 0.0 | 3.2 | 0.00 | 1.40 | 0.79 | 83 | 1008.7 |
| 20260506144540 | 11 | 9 | 0.0 | 3.2 | 0.00 | 1.40 | 0.79 | 84 | 1008.8 |
| 20260506143057 | 11 | 10 | 1.6 | 6.4 | 0.00 | 1.40 | 0.79 | 84 | 1008.8 |
| 20260506141529 | 11 | 28 | 4.8 | 9.7 | 0.00 | 1.40 | 0.79 | 83 | 1008.8 |
| 20260506140014 | 11 | 360 | 9.7 | 19.3 | 0.00 | 1.40 | 0.79 | 82 | 1008.8 |
| 20260506134556 | 11 | 15 | 6.4 | 14.5 | 0.00 | 1.40 | 0.79 | 83 | 1008.7 |
| 20260506133030 | 11 | 355 | 3.2 | 17.7 | 0.00 | 1.40 | 0.79 | 83 | 1008.8 |
| 20260506131512 | 11 | 83 | 9.7 | 16.1 | 0.00 | 1.40 | 0.79 | 82 | 1008.7 |
| 20260506130050 | 12 | 13 | 11.3 | 17.7 | 0.00 | 1.40 | 0.79 | 83 | 1008.6 |
| 20260506124523 | 12 | 12 | 9.7 | 24.1 | 0.00 | 1.40 | 0.79 | 84 | 1008.5 |
| 20260506123053 | 11 | 28 | 16.1 | 25.7 | 0.00 | 1.40 | 0.79 | 85 | 1008.4 |
| 20260506121527 | 11 | 360 | 11.3 | 19.3 | 0.00 | 1.40 | 0.79 | 87 | 1008.3 |
| 20260506120058 | 10 | 9 | 6.4 | 19.3 | 0.00 | 1.40 | 0.79 | 89 | 1008.2 |
| 20260506114520 | 10 | 355 | 9.7 | 20.9 | 0.00 | 1.40 | 0.79 | 89 | 1008.1 |
| 20260506113056 | 10 | 5 | 9.7 | 19.3 | 0.00 | 1.40 | 0.79 | 90 | 1008.0 |
| 20260506111512 | 10 | 344 | 6.4 | 17.7 | 0.00 | 1.40 | 0.79 | 91 | 1007.8 |
| 20260506110032 | 10 | 310 | 6.4 | 16.1 | 0.00 | 1.40 | 0.79 | 92 | 1007.8 |
| 20260506104559 | 10 | 338 | 11.3 | 17.7 | 0.00 | 1.40 | 0.79 | 92 | 1007.9 |
| 20260506103018 | 9 | 14 | 8.0 | 17.7 | 0.00 | 1.40 | 0.79 | 92 | 1007.9 |
| 20260506101540 | 9 | 348 | 9.7 | 14.5 | 0.00 | 1.40 | 0.79 | 92 | 1007.9 |